Time;durP1;ratioP1;P1;durP2;ratioP2;P2;SDS_P1;SDS_P2;PMS_P1;PMS_P2;Temp;Humidity;BMP_temperature;BMP_pressure;BME280_temperature;BME280_humidity;BME280_pressure;Samples;Min_cycle;Max_cycle;Signal;HPM_P1;HPM_P2
2020/12/12 00:00:09;;;;;;;8.43;6.47;;;;;;;;;;5033635;28;20178;-65
2020/12/12 00:02:34;;;;;;;7.03;6.30;;;;;;;;;;5033443;28;20309;-65
2020/12/12 00:05:00;;;;;;;7.83;7.03;;;;;;;;;;5033779;28;20619;-65
2020/12/12 00:07:25;;;;;;;8.10;6.77;;;;;;;;;;5033793;28;20190;-65
2020/12/12 00:09:51;;;;;;;8.03;7.23;;;;;;;;;;5033502;28;20171;-65
2020/12/12 00:12:16;;;;;;;7.13;6.43;;;;;;;;;;5033352;28;20264;-65
2020/12/12 00:14:41;;;;;;;8.10;6.70;;;;;;;;;;5033119;28;20683;-65
2020/12/12 00:17:07;;;;;;;7.17;6.13;;;;;;;;;;5033550;28;20186;-65
2020/12/12 00:19:32;;;;;;;8.17;6.63;;;;;;;;;;5033268;28;20277;-65
2020/12/12 00:21:57;;;;;;;9.37;6.83;;;;;;;;;;5033292;28;20193;-65
2020/12/12 00:24:23;;;;;;;8.57;7.00;;;;;;;;;;5033550;28;20182;-66
2020/12/12 00:26:48;;;;;;;7.77;6.60;;;;;;;;;;5033344;28;20244;-65
2020/12/12 00:29:14;;;;;;;8.83;6.47;;;;;;;;;;5033347;28;20701;-65
2020/12/12 00:31:43;;;;;;;8.23;6.40;;;;;;;;;;5033174;28;20232;-65
2020/12/12 00:34:08;;;;;;;7.33;6.57;;;;;;;;;;5033222;28;20209;-65
2020/12/12 00:36:41;;;;;;;9.07;7.03;;;;;;;;;;5033029;28;20643;-65
2020/12/12 00:39:07;;;;;;;9.03;6.47;;;;;;;;;;5033117;28;20593;-65
2020/12/12 00:41:36;;;;;;;8.23;6.50;;;;;;;;;;5033072;28;20254;-65
2020/12/12 00:44:03;;;;;;;7.90;6.63;;;;;;;;;;5033138;28;20180;-65
2020/12/12 00:46:29;;;;;;;7.07;5.63;;;;;;;;;;5033330;28;20183;-65
2020/12/12 00:48:54;;;;;;;6.90;6.20;;;;;;;;;;5032975;28;20175;-65
2020/12/12 00:51:19;;;;;;;7.00;5.90;;;;;;;;;;5033019;28;20178;-64
2020/12/12 00:53:45;;;;;;;7.27;6.20;;;;;;;;;;5032961;28;20635;-66
2020/12/12 00:56:10;;;;;;;7.87;7.07;;;;;;;;;;5032933;28;20202;-65
2020/12/12 00:58:35;;;;;;;6.70;6.00;;;;;;;;;;5032883;28;20183;-65
2020/12/12 01:01:00;;;;;;;9.30;7.23;;;;;;;;;;5033061;28;20525;-64
2020/12/12 01:03:26;;;;;;;7.70;6.80;;;;;;;;;;5032889;28;20185;-65
2020/12/12 01:05:51;;;;;;;7.60;6.40;;;;;;;;;;5032913;28;20179;-65
2020/12/12 01:08:16;;;;;;;7.00;6.17;;;;;;;;;;5035230;28;20178;-65
2020/12/12 01:10:41;;;;;;;6.97;5.93;;;;;;;;;;5036592;28;20175;-66
2020/12/12 01:13:07;;;;;;;7.70;6.63;;;;;;;;;;5036836;28;20206;-65
2020/12/12 01:15:32;;;;;;;6.47;5.77;;;;;;;;;;5036554;28;20238;-66
2020/12/12 01:17:57;;;;;;;8.10;6.53;;;;;;;;;;5036533;28;20181;-65
2020/12/12 01:20:23;;;;;;;8.47;7.57;;;;;;;;;;5036483;28;20340;-66
2020/12/12 01:22:48;;;;;;;7.53;6.63;;;;;;;;;;5036403;28;20190;-65
2020/12/12 01:25:14;;;;;;;10.13;8.50;;;;;;;;;;5036714;28;20181;-65
2020/12/12 01:27:39;;;;;;;11.90;8.43;;;;;;;;;;5036605;28;20182;-65
2020/12/12 01:30:04;;;;;;;6.57;5.63;;;;;;;;;;5036288;28;20178;-65
2020/12/12 01:32:30;;;;;;;7.53;6.20;;;;;;;;;;5036441;28;20596;-65
2020/12/12 01:34:55;;;;;;;7.23;6.27;;;;;;;;;;5036100;28;20286;-65
2020/12/12 01:37:20;;;;;;;7.37;5.80;;;;;;;;;;5035994;28;20214;-65
2020/12/12 01:39:46;;;;;;;5.93;4.97;;;;;;;;;;5036119;28;20269;-65
2020/12/12 01:42:11;;;;;;;8.97;6.73;;;;;;;;;;5036295;28;20185;-64
2020/12/12 01:44:37;;;;;;;7.57;6.33;;;;;;;;;;5036155;28;20654;-65
2020/12/12 01:47:04;;;;;;;6.53;5.70;;;;;;;;;;5036312;28;20178;-65
2020/12/12 01:49:29;;;;;;;6.70;5.97;;;;;;;;;;5035919;28;20179;-65
2020/12/12 01:51:55;;;;;;;6.87;5.70;;;;;;;;;;5035854;28;20190;-65
2020/12/12 01:54:20;;;;;;;7.57;6.10;;;;;;;;;;5035727;28;20202;-65
2020/12/12 01:56:48;;;;;;;10.13;8.73;;;;;;;;;;5035802;28;20186;-65
2020/12/12 01:59:13;;;;;;;6.73;5.97;;;;;;;;;;5035790;28;20185;-65
2020/12/12 02:01:39;;;;;;;6.07;5.40;;;;;;;;;;5036192;28;20178;-64
2020/12/12 02:04:06;;;;;;;7.63;6.60;;;;;;;;;;5065952;22;20676;-66
2020/12/12 02:06:34;;;;;;;5.87;5.27;;;;;;;;;;5076340;28;20185;-65
2020/12/12 02:08:59;;;;;;;5.93;5.30;;;;;;;;;;5075645;28;20224;-65
2020/12/12 02:11:24;;;;;;;6.23;5.63;;;;;;;;;;5075641;28;20169;-65
2020/12/12 02:13:49;;;;;;;6.50;5.80;;;;;;;;;;5075619;28;20216;-65
2020/12/12 02:16:16;;;;;;;6.10;5.50;;;;;;;;;;5075534;28;20266;-66
2020/12/12 02:18:42;;;;;;;6.10;5.50;;;;;;;;;;5075198;28;20173;-64
2020/12/12 02:21:08;;;;;;;5.60;5.00;;;;;;;;;;5075705;28;20180;-66
2020/12/12 02:23:33;;;;;;;5.83;5.13;;;;;;;;;;5075500;28;20178;-66
2020/12/12 02:25:59;;;;;;;5.47;4.87;;;;;;;;;;5075401;28;20197;-67
2020/12/12 02:28:48;;;;;;;6.77;5.27;;;;;;;;;;5075614;28;20188;-67
2020/12/12 02:31:10;;;;;;;6.70;4.97;;;;;;;;;;5074849;28;20197;-66
2020/12/12 02:33:38;;;;;;;5.73;5.23;;;;;;;;;;5075213;28;20180;-66
2020/12/12 02:36:03;;;;;;;5.33;4.67;;;;;;;;;;5075522;28;20230;-66
2020/12/12 02:38:29;;;;;;;5.37;4.87;;;;;;;;;;5075182;28;20236;-65
2020/12/12 02:40:54;;;;;;;5.40;4.77;;;;;;;;;;5075281;28;20230;-65
2020/12/12 02:43:19;;;;;;;5.63;5.03;;;;;;;;;;5075055;28;20185;-66
2020/12/12 02:45:46;;;;;;;5.70;5.10;;;;;;;;;;5075186;28;20296;-66
2020/12/12 02:48:12;;;;;;;4.97;4.40;;;;;;;;;;5074983;28;20184;-66
2020/12/12 02:50:37;;;;;;;5.50;4.47;;;;;;;;;;5074969;28;20177;-65
2020/12/12 02:53:02;;;;;;;5.73;5.03;;;;;;;;;;5075114;28;20268;-66
2020/12/12 02:55:28;;;;;;;6.03;5.03;;;;;;;;;;5074763;28;20272;-66
2020/12/12 02:57:53;;;;;;;5.40;4.70;;;;;;;;;;5074841;28;20181;-66
2020/12/12 03:00:21;;;;;;;5.47;4.87;;;;;;;;;;5074641;28;20189;-65
2020/12/12 03:02:46;;;;;;;5.70;4.90;;;;;;;;;;5074339;28;20646;-65
2020/12/12 03:05:12;;;;;;;5.77;5.17;;;;;;;;;;5074923;28;20176;-66
2020/12/12 03:07:38;;;;;;;5.60;5.00;;;;;;;;;;5074845;28;20234;-65
2020/12/12 03:10:06;;;;;;;6.30;4.90;;;;;;;;;;5075195;28;20181;-65
2020/12/12 03:12:36;;;;;;;5.00;4.50;;;;;;;;;;5074669;28;20177;-65
2020/12/12 03:15:04;;;;;;;5.80;5.20;;;;;;;;;;5074379;28;20282;-65
2020/12/12 03:17:29;;;;;;;6.20;5.47;;;;;;;;;;5074351;28;20630;-66
2020/12/12 03:19:55;;;;;;;6.07;5.40;;;;;;;;;;5074263;28;20181;-65
2020/12/12 03:22:20;;;;;;;5.80;5.20;;;;;;;;;;5074294;28;20173;-65
2020/12/12 03:24:46;;;;;;;5.33;4.63;;;;;;;;;;5074148;28;20177;-65
2020/12/12 03:27:11;;;;;;;6.77;5.30;;;;;;;;;;5074497;28;20588;-65
2020/12/12 03:29:37;;;;;;;6.30;5.70;;;;;;;;;;5073662;28;20563;-65
2020/12/12 03:32:10;;;;;;;5.40;4.90;;;;;;;;;;5074417;28;20189;-65
2020/12/12 03:34:35;;;;;;;5.10;4.53;;;;;;;;;;5074226;28;20193;-66
2020/12/12 03:37:02;;;;;;;6.17;5.27;;;;;;;;;;5073994;28;20188;-65
2020/12/12 03:39:27;;;;;;;5.63;5.03;;;;;;;;;;5073869;28;20187;-65
2020/12/12 03:41:52;;;;;;;6.93;5.17;;;;;;;;;;5073957;28;20693;-65
2020/12/12 03:44:17;;;;;;;4.97;4.50;;;;;;;;;;5073795;28;20641;-66
2020/12/12 03:46:43;;;;;;;6.03;5.43;;;;;;;;;;5073842;28;20234;-65
2020/12/12 03:49:08;;;;;;;5.30;4.80;;;;;;;;;;5074037;28;20177;-65
2020/12/12 03:51:33;;;;;;;6.13;5.23;;;;;;;;;;5073780;28;20560;-66
2020/12/12 03:53:59;;;;;;;5.00;4.47;;;;;;;;;;5073972;28;20185;-65
2020/12/12 03:56:24;;;;;;;4.57;4.17;;;;;;;;;;5073565;28;20552;-65
2020/12/12 03:58:50;;;;;;;5.30;4.80;;;;;;;;;;5073939;28;20189;-64
2020/12/12 04:01:15;;;;;;;5.20;4.70;;;;;;;;;;5073709;28;20189;-64
2020/12/12 04:03:40;;;;;;;5.27;4.63;;;;;;;;;;5073374;28;20220;-67
2020/12/12 04:06:05;;;;;;;4.93;4.43;;;;;;;;;;5073604;28;20189;-68
2020/12/12 04:08:31;;;;;;;5.40;4.90;;;;;;;;;;5073603;28;20184;-67
2020/12/12 04:10:56;;;;;;;5.03;4.53;;;;;;;;;;5073561;28;20261;-66
2020/12/12 04:13:21;;;;;;;5.43;4.90;;;;;;;;;;5072357;28;20263;-66
2020/12/12 04:15:47;;;;;;;5.07;4.57;;;;;;;;;;5073443;28;20196;-66
2020/12/12 04:18:12;;;;;;;4.67;4.23;;;;;;;;;;5073486;28;20178;-66
2020/12/12 04:20:37;;;;;;;4.73;4.20;;;;;;;;;;5073424;28;20181;-67
2020/12/12 04:23:03;;;;;;;4.47;4.07;;;;;;;;;;5073348;28;20181;-67
2020/12/12 04:25:28;;;;;;;4.90;4.40;;;;;;;;;;5073397;28;20252;-67
2020/12/12 04:27:53;;;;;;;4.97;4.33;;;;;;;;;;5073446;28;20264;-67
2020/12/12 04:30:18;;;;;;;4.77;4.00;;;;;;;;;;5073568;28;20184;-67
2020/12/12 04:32:44;;;;;;;5.00;4.50;;;;;;;;;;5073255;28;20187;-67
2020/12/12 04:35:09;;;;;;;4.77;4.30;;;;;;;;;;5073495;28;20193;-68
2020/12/12 04:37:34;;;;;;;4.80;4.30;;;;;;;;;;5073180;28;20192;-67
2020/12/12 04:40:00;;;;;;;5.00;4.40;;;;;;;;;;5073227;28;20235;-67
2020/12/12 04:42:27;;;;;;;4.67;4.27;;;;;;;;;;5075983;28;20188;-67
2020/12/12 04:44:52;;;;;;;4.67;4.27;;;;;;;;;;5077769;28;20656;-67
2020/12/12 04:47:18;;;;;;;4.50;4.10;;;;;;;;;;5077295;28;20173;-67
2020/12/12 04:49:44;;;;;;;4.43;4.00;;;;;;;;;;5077491;28;20231;-66
2020/12/12 04:52:14;;;;;;;4.70;4.20;;;;;;;;;;5077131;28;20291;-66
2020/12/12 04:54:39;;;;;;;4.63;4.10;;;;;;;;;;5076962;28;20226;-66
2020/12/12 04:57:06;;;;;;;5.00;4.43;;;;;;;;;;5077051;28;20264;-68
2020/12/12 04:59:34;;;;;;;4.27;3.87;;;;;;;;;;5077192;28;20188;-67
2020/12/12 05:02:00;;;;;;;4.20;3.83;;;;;;;;;;5077195;28;20177;-67
2020/12/12 05:04:26;;;;;;;4.27;3.87;;;;;;;;;;5076617;28;20701;-68
2020/12/12 05:06:52;;;;;;;4.63;4.17;;;;;;;;;;5077117;28;20181;-68
2020/12/12 05:09:17;;;;;;;5.13;4.03;;;;;;;;;;5077081;28;20223;-66
2020/12/12 05:11:47;;;;;;;4.70;4.17;;;;;;;;;;5077166;28;20244;-66
2020/12/12 05:14:16;;;;;;;4.23;3.83;;;;;;;;;;5076655;28;20161;-67
2020/12/12 05:16:44;;;;;;;4.00;3.60;;;;;;;;;;5076653;28;20268;-67
2020/12/12 05:19:10;;;;;;;3.80;3.40;;;;;;;;;;5076840;28;20177;-68
2020/12/12 05:21:45;;;;;;;3.83;3.43;;;;;;;;;;5077151;28;20180;-67
2020/12/12 05:24:10;;;;;;;3.80;3.50;;;;;;;;;;5076533;28;20586;-68
2020/12/12 05:26:36;;;;;;;3.53;3.23;;;;;;;;;;5076439;28;20176;-67
2020/12/12 05:29:02;;;;;;;4.40;3.70;;;;;;;;;;5076481;28;20181;-68
2020/12/12 05:31:27;;;;;;;3.37;3.07;;;;;;;;;;5076697;28;20575;-67
2020/12/12 05:33:53;;;;;;;3.30;3.00;;;;;;;;;;5076306;28;20200;-67
2020/12/12 05:36:24;;;;;;;3.50;3.20;;;;;;;;;;5076469;28;20201;-67
2020/12/12 05:38:58;;;;;;;3.50;3.20;;;;;;;;;;5076642;28;20178;-67
2020/12/12 05:41:26;;;;;;;2.93;2.63;;;;;;;;;;5076504;28;20274;-66
2020/12/12 05:43:51;;;;;;;3.10;2.80;;;;;;;;;;5076502;28;20665;-66
2020/12/12 05:46:19;;;;;;;3.20;2.90;;;;;;;;;;5076106;28;20173;-66
2020/12/12 05:48:44;;;;;;;3.20;2.90;;;;;;;;;;5076139;28;20177;-65
2020/12/12 05:51:10;;;;;;;3.00;2.63;;;;;;;;;;5076066;28;20177;-66
2020/12/12 05:53:35;;;;;;;3.40;3.10;;;;;;;;;;5075191;28;20178;-66
2020/12/12 05:56:00;;;;;;;3.00;2.70;;;;;;;;;;5075929;28;20208;-66
2020/12/12 05:58:26;;;;;;;4.03;2.43;;;;;;;;;;5075908;28;20185;-66
2020/12/12 06:00:53;;;;;;;2.93;2.70;;;;;;;;;;5076018;28;20610;-67
2020/12/12 06:03:29;;;;;;;2.87;2.57;;;;;;;;;;5075620;28;20261;-67
2020/12/12 06:06:02;;;;;;;2.70;2.50;;;;;;;;;;5076079;28;20685;-66
2020/12/12 06:08:46;;;;;;;2.87;2.67;;;;;;;;;;5075877;28;20173;-66
2020/12/12 06:11:11;;;;;;;3.50;3.20;;;;;;;;;;5075839;28;20166;-66
2020/12/12 06:13:38;;;;;;;2.83;2.53;;;;;;;;;;5076022;28;20528;-66
2020/12/12 06:16:06;;;;;;;3.40;3.10;;;;;;;;;;5075861;28;20197;-66
2020/12/12 06:18:48;;;;;;;2.70;2.50;;;;;;;;;;5075902;28;20189;-67
2020/12/12 06:21:14;;;;;;;2.73;2.53;;;;;;;;;;5075835;28;20353;-66
2020/12/12 06:23:40;;;;;;;3.27;2.60;;;;;;;;;;5075510;28;20184;-66
2020/12/12 06:26:07;;;;;;;2.90;2.60;;;;;;;;;;5075453;28;20176;-66
2020/12/12 06:28:40;;;;;;;3.27;2.97;;;;;;;;;;5075623;28;20633;-66
2020/12/12 06:31:07;;;;;;;2.60;2.40;;;;;;;;;;5075809;28;20157;-66
2020/12/12 06:33:47;;;;;;;3.27;2.80;;;;;;;;;;5075340;28;20185;-67
2020/12/12 06:36:46;;;;;;;2.73;2.50;;;;;;;;;;5075464;28;20235;-66
2020/12/12 06:39:21;;;;;;;2.50;2.30;;;;;;;;;;5063633;28;20704;-66
2020/12/12 06:41:55;;;;;;;2.90;2.60;;;;;;;;;;5075127;28;20188;-66
2020/12/12 06:44:42;;;;;;;2.90;2.60;;;;;;;;;;5075169;28;20170;-67
2020/12/12 06:47:08;;;;;;;2.93;2.63;;;;;;;;;;5075036;28;20643;-67
2020/12/12 06:49:35;;;;;;;2.53;2.33;;;;;;;;;;5075240;28;20213;-67
2020/12/12 06:52:00;;;;;;;2.70;2.40;;;;;;;;;;5075612;28;20185;-67
2020/12/12 06:54:26;;;;;;;2.80;2.50;;;;;;;;;;5074960;28;20177;-66
2020/12/12 06:56:51;;;;;;;2.27;2.07;;;;;;;;;;5075041;28;20193;-66
2020/12/12 06:59:26;;;;;;;2.47;2.27;;;;;;;;;;5074798;28;20661;-67
2020/12/12 07:01:57;;;;;;;2.40;2.20;;;;;;;;;;5075337;28;20260;-67
2020/12/12 07:04:24;;;;;;;2.20;2.00;;;;;;;;;;5074543;28;20228;-66
2020/12/12 07:06:59;;;;;;;2.47;2.27;;;;;;;;;;5074788;28;20181;-66
2020/12/12 07:09:28;;;;;;;2.53;2.33;;;;;;;;;;5074808;28;20173;-66
2020/12/12 07:11:57;;;;;;;2.30;2.10;;;;;;;;;;5074749;28;20181;-67
2020/12/12 07:14:23;;;;;;;2.77;2.57;;;;;;;;;;5074680;28;20611;-67
2020/12/12 07:16:57;;;;;;;2.53;2.33;;;;;;;;;;5074598;28;20256;-67
2020/12/12 07:19:29;;;;;;;2.40;2.20;;;;;;;;;;5074856;28;20196;-67
2020/12/12 07:21:55;;;;;;;2.50;2.30;;;;;;;;;;5074543;28;20638;-66
2020/12/12 07:24:20;;;;;;;2.70;2.50;;;;;;;;;;5074190;28;20256;-66
2020/12/12 07:26:45;;;;;;;2.30;2.10;;;;;;;;;;5074113;28;20176;-66
2020/12/12 07:29:11;;;;;;;2.60;2.40;;;;;;;;;;5074402;28;20180;-66
2020/12/12 07:31:36;;;;;;;3.03;2.73;;;;;;;;;;5072814;28;20252;-66
2020/12/12 07:34:01;;;;;;;2.50;2.30;;;;;;;;;;5074065;28;20264;-66
2020/12/12 07:36:27;;;;;;;3.40;2.83;;;;;;;;;;5073968;28;20581;-66
2020/12/12 07:38:52;;;;;;;2.47;2.20;;;;;;;;;;5074258;28;20189;-66
2020/12/12 07:41:18;;;;;;;2.70;2.23;;;;;;;;;;5073994;28;20173;-67
2020/12/12 07:43:54;;;;;;;3.33;3.00;;;;;;;;;;5073868;28;20201;-68
2020/12/12 07:46:20;;;;;;;3.70;3.40;;;;;;;;;;5074037;28;20231;-67
2020/12/12 07:48:59;;;;;;;3.17;2.87;;;;;;;;;;5073478;28;20177;-66
2020/12/12 07:51:24;;;;;;;3.20;2.90;;;;;;;;;;5073834;28;20165;-66
2020/12/12 07:53:49;;;;;;;3.30;3.00;;;;;;;;;;5073511;28;20192;-66
2020/12/12 07:56:15;;;;;;;3.10;2.80;;;;;;;;;;5073440;28;20185;-66
2020/12/12 07:58:40;;;;;;;3.80;3.07;;;;;;;;;;5073467;28;20184;-67
2020/12/12 08:01:06;;;;;;;3.13;2.70;;;;;;;;;;5073449;28;20371;-66
2020/12/12 08:03:32;;;;;;;3.10;2.77;;;;;;;;;;5073209;28;20233;-67
2020/12/12 08:06:09;;;;;;;3.17;2.83;;;;;;;;;;5073653;28;20177;-68
2020/12/12 08:08:35;;;;;;;5.37;3.20;;;;;;;;;;5073764;28;20177;-68
2020/12/12 08:11:02;;;;;;;4.47;4.00;;;;;;;;;;5073735;28;20169;-67
2020/12/12 08:13:28;;;;;;;4.33;3.60;;;;;;;;;;5073699;28;20699;-67
2020/12/12 08:16:16;;;;;;;5.40;3.67;;;;;;;;;;5072995;28;20185;-67
2020/12/12 08:18:41;;;;;;;4.60;3.77;;;;;;;;;;5073729;28;20176;-67
2020/12/12 08:21:11;;;;;;;4.97;3.80;;;;;;;;;;5073471;28;20268;-67
2020/12/12 08:23:37;;;;;;;4.33;3.83;;;;;;;;;;5073521;28;20200;-67
2020/12/12 08:26:03;;;;;;;3.97;3.57;;;;;;;;;;5073400;28;20169;-68
2020/12/12 08:28:29;;;;;;;4.03;3.63;;;;;;;;;;5073498;28;20638;-67
2020/12/12 08:31:17;;;;;;;3.67;3.33;;;;;;;;;;5073251;28;20174;-67
2020/12/12 08:33:44;;;;;;;3.47;3.13;;;;;;;;;;5073492;28;20162;-67
2020/12/12 08:36:19;;;;;;;4.13;3.37;;;;;;;;;;5073342;28;20221;-67
2020/12/12 08:38:53;;;;;;;3.40;3.00;;;;;;;;;;5072992;28;20173;-67
2020/12/12 08:41:19;;;;;;;3.70;3.00;;;;;;;;;;5073164;28;20242;-68
2020/12/12 08:43:45;;;;;;;4.63;3.00;;;;;;;;;;5073287;28;20579;-67
2020/12/12 08:46:14;;;;;;;3.23;2.93;;;;;;;;;;5073456;28;20178;-68
2020/12/12 08:48:40;;;;;;;4.20;3.20;;;;;;;;;;5073375;28;20181;-67
2020/12/12 08:51:07;;;;;;;3.63;3.30;;;;;;;;;;5073142;28;20208;-67
2020/12/12 08:53:34;;;;;;;3.80;3.00;;;;;;;;;;5073367;28;20181;-67
2020/12/12 08:56:09;;;;;;;5.23;3.17;;;;;;;;;;5073168;28;20649;-67
2020/12/12 08:58:38;;;;;;;10.30;3.63;;;;;;;;;;5073302;28;20177;-67
2020/12/12 09:01:22;;;;;;;9.17;3.60;;;;;;;;;;5073400;28;20222;-67
2020/12/12 09:03:53;;;;;;;6.90;3.40;;;;;;;;;;5072704;28;20640;-66
2020/12/12 09:06:19;;;;;;;10.57;4.30;;;;;;;;;;5073540;28;20526;-67
2020/12/12 09:08:44;;;;;;;7.90;3.80;;;;;;;;;;5072971;28;20188;-66
2020/12/12 09:11:15;;;;;;;8.37;4.60;;;;;;;;;;5073235;28;20204;-66
2020/12/12 09:13:40;;;;;;;6.10;3.63;;;;;;;;;;5073297;28;20173;-66
2020/12/12 09:16:10;;;;;;;9.20;4.13;;;;;;;;;;5072859;28;20205;-67
2020/12/12 09:18:46;;;;;;;6.33;3.80;;;;;;;;;;5073145;28;20254;-66
2020/12/12 09:21:12;;;;;;;5.50;3.53;;;;;;;;;;5073189;28;20166;-67
2020/12/12 09:23:38;;;;;;;5.27;3.30;;;;;;;;;;5072884;28;20181;-66
2020/12/12 09:26:04;;;;;;;6.33;3.60;;;;;;;;;;5072978;28;20170;-67
2020/12/12 09:28:30;;;;;;;9.30;4.13;;;;;;;;;;5073886;28;20184;-66
2020/12/12 09:30:55;;;;;;;5.93;4.00;;;;;;;;;;5076499;28;20272;-65
2020/12/12 09:33:21;;;;;;;6.87;3.80;;;;;;;;;;5076379;28;20182;-65
2020/12/12 09:35:46;;;;;;;7.10;4.20;;;;;;;;;;5076366;28;20274;-65
2020/12/12 09:38:11;;;;;;;6.97;3.90;;;;;;;;;;5076228;28;20578;-65
2020/12/12 09:40:36;;;;;;;10.00;4.20;;;;;;;;;;5076218;28;20188;-65
2020/12/12 09:43:02;;;;;;;8.17;4.17;;;;;;;;;;5076222;28;20547;-64
2020/12/12 09:45:27;;;;;;;7.57;4.27;;;;;;;;;;5076175;28;20170;-65
2020/12/12 09:47:52;;;;;;;9.90;4.43;;;;;;;;;;5076114;28;20181;-65
2020/12/12 09:50:18;;;;;;;10.17;4.57;;;;;;;;;;5076484;28;20204;-65
2020/12/12 09:52:43;;;;;;;8.17;4.30;;;;;;;;;;5075973;28;20173;-67
2020/12/12 09:55:08;;;;;;;8.67;4.60;;;;;;;;;;5075982;28;20563;-66
2020/12/12 09:57:33;;;;;;;9.13;4.37;;;;;;;;;;5075999;28;20184;-67
2020/12/12 09:59:59;;;;;;;9.27;4.97;;;;;;;;;;5075938;28;20252;-66
2020/12/12 10:02:24;;;;;;;8.70;4.53;;;;;;;;;;5076240;28;20259;-65
2020/12/12 10:04:50;;;;;;;7.97;4.17;;;;;;;;;;5075503;28;20708;-66
2020/12/12 10:07:17;;;;;;;7.47;4.20;;;;;;;;;;5075741;28;20273;-67
2020/12/12 10:09:42;;;;;;;8.07;4.03;;;;;;;;;;5076043;28;20185;-67
2020/12/12 10:12:07;;;;;;;7.67;3.73;;;;;;;;;;5075686;28;20691;-67
2020/12/12 10:14:33;;;;;;;7.83;3.90;;;;;;;;;;5075573;28;20260;-67
2020/12/12 10:16:58;;;;;;;10.60;4.20;;;;;;;;;;5075593;28;20181;-64
2020/12/12 10:19:23;;;;;;;9.00;3.83;;;;;;;;;;5075543;28;20173;-66
2020/12/12 10:21:49;;;;;;;6.20;3.33;;;;;;;;;;5076035;28;20222;-66
2020/12/12 10:24:14;;;;;;;9.70;4.10;;;;;;;;;;5075641;28;20188;-65
2020/12/12 10:26:39;;;;;;;4.93;3.43;;;;;;;;;;5075866;28;20173;-66
2020/12/12 10:29:05;;;;;;;12.03;3.80;;;;;;;;;;5075486;28;20240;-66
2020/12/12 10:31:30;;;;;;;7.90;3.30;;;;;;;;;;5075274;28;20177;-65
2020/12/12 10:33:55;;;;;;;7.27;3.40;;;;;;;;;;5075250;28;20554;-65
2020/12/12 10:36:20;;;;;;;7.47;3.63;;;;;;;;;;5075228;28;20201;-64
2020/12/12 10:38:46;;;;;;;7.27;3.77;;;;;;;;;;5074786;28;20661;-65
2020/12/12 10:41:12;;;;;;;9.00;4.07;;;;;;;;;;5075364;28;20255;-64
2020/12/12 10:43:38;;;;;;;7.97;3.33;;;;;;;;;;5075355;28;20257;-66
2020/12/12 10:46:03;;;;;;;9.50;3.93;;;;;;;;;;5075291;28;20219;-66
2020/12/12 10:48:29;;;;;;;6.80;3.87;;;;;;;;;;5075013;28;20181;-65
2020/12/12 10:50:55;;;;;;;7.03;3.27;;;;;;;;;;5074852;28;20185;-66
2020/12/12 10:53:20;;;;;;;8.33;3.20;;;;;;;;;;5074910;28;20688;-64
2020/12/12 10:55:45;;;;;;;8.37;3.23;;;;;;;;;;5074978;28;20201;-64
2020/12/12 10:58:10;;;;;;;5.57;2.70;;;;;;;;;;5074675;28;20188;-64
2020/12/12 11:00:47;;;;;;;6.37;3.00;;;;;;;;;;5074706;28;20362;-65
2020/12/12 11:03:12;;;;;;;7.03;3.03;;;;;;;;;;5074672;28;20236;-65
2020/12/12 11:05:38;;;;;;;7.27;3.30;;;;;;;;;;5074831;28;20170;-65
2020/12/12 11:08:03;;;;;;;7.90;3.55;;;;;;;;;;5074689;28;20213;-64
2020/12/12 11:10:29;;;;;;;8.10;3.10;;;;;;;;;;5074475;28;20744;-65
2020/12/12 11:12:54;;;;;;;6.63;3.07;;;;;;;;;;5074441;28;20170;-65
2020/12/12 11:15:20;;;;;;;7.25;3.50;;;;;;;;;;5074320;28;20675;-66
2020/12/12 11:17:45;;;;;;;11.57;4.00;;;;;;;;;;5074669;28;20196;-64
2020/12/12 11:20:14;;;;;;;6.97;3.17;;;;;;;;;;5074402;28;20181;-66
2020/12/12 11:22:39;;;;;;;6.90;3.53;;;;;;;;;;5074550;28;20181;-65
2020/12/12 11:25:06;;;;;;;8.53;3.30;;;;;;;;;;5074313;28;20581;-65
2020/12/12 11:27:31;;;;;;;7.27;4.00;;;;;;;;;;5074180;28;20181;-66
2020/12/12 11:29:57;;;;;;;8.20;4.03;;;;;;;;;;5074170;28;20280;-66
2020/12/12 11:32:23;;;;;;;7.83;3.53;;;;;;;;;;5074097;28;20169;-67
2020/12/12 11:34:56;;;;;;;8.67;3.87;;;;;;;;;;5074259;28;20283;-67
2020/12/12 11:37:31;;;;;;;8.93;4.00;;;;;;;;;;5074082;28;20848;-67
2020/12/12 11:47:40;;;;;;;6.03;3.80;;;;;;;;;;5073860;28;20712;-67
2020/12/12 11:50:06;;;;;;;7.53;4.00;;;;;;;;;;5073796;28;20260;-67
2020/12/12 11:52:42;;;;;;;8.00;4.10;;;;;;;;;;5073126;28;20170;-67
2020/12/12 11:55:07;;;;;;;7.23;4.20;;;;;;;;;;5073814;28;20570;-67
2020/12/12 11:57:33;;;;;;;8.13;4.23;;;;;;;;;;5073902;28;20642;-66
2020/12/12 12:00:05;;;;;;;6.60;4.00;;;;;;;;;;5073852;28;20216;-67
2020/12/12 12:02:31;;;;;;;5.37;4.10;;;;;;;;;;5073585;28;20162;-66
2020/12/12 12:04:56;;;;;;;6.83;3.77;;;;;;;;;;5047119;28;20242;-67
2020/12/12 12:07:21;;;;;;;7.17;3.50;;;;;;;;;;5033716;28;20182;-66
2020/12/12 12:09:49;;;;;;;5.73;3.87;;;;;;;;;;5033613;28;20189;-66
2020/12/12 12:12:14;;;;;;;5.20;4.43;;;;;;;;;;5034993;28;20209;-65
2020/12/12 12:14:40;;;;;;;6.73;4.30;;;;;;;;;;5039485;28;20174;-66
2020/12/12 12:17:05;;;;;;;7.90;4.57;;;;;;;;;;5034327;28;20586;-67
2020/12/12 12:19:30;;;;;;;7.40;4.50;;;;;;;;;;5033503;28;20175;-66
2020/12/12 12:21:55;;;;;;;6.40;4.33;;;;;;;;;;5033168;28;20249;-66
2020/12/12 12:24:21;;;;;;;6.97;4.40;;;;;;;;;;5033332;28;20178;-66
2020/12/12 12:26:48;;;;;;;5.33;4.27;;;;;;;;;;5033447;28;20170;-65
2020/12/12 12:29:15;;;;;;;7.07;4.67;;;;;;;;;;5033689;28;20521;-66
2020/12/12 12:31:41;;;;;;;7.47;4.97;;;;;;;;;;5033681;28;20559;-65
2020/12/12 12:34:07;;;;;;;8.83;5.07;;;;;;;;;;5033602;28;20574;-67
2020/12/12 12:36:33;;;;;;;8.03;4.60;;;;;;;;;;5033472;28;20197;-64
2020/12/12 12:39:00;;;;;;;6.17;4.13;;;;;;;;;;5033345;28;20187;-65
2020/12/12 12:41:26;;;;;;;6.43;4.13;;;;;;;;;;5033506;28;20655;-65
2020/12/12 12:43:52;;;;;;;5.53;4.30;;;;;;;;;;5033240;28;20181;-66
2020/12/12 12:46:19;;;;;;;7.70;3.90;;;;;;;;;;5033164;28;20170;-65
2020/12/12 12:48:44;;;;;;;8.27;4.60;;;;;;;;;;5033466;28;20181;-65
2020/12/12 12:51:10;;;;;;;5.33;4.10;;;;;;;;;;5033223;28;20222;-63
2020/12/12 12:53:35;;;;;;;6.55;4.15;;;;;;;;;;5033431;28;20670;-65
2020/12/12 12:56:01;;;;;;;5.27;3.70;;;;;;;;;;5033356;28;20198;-65
2020/12/12 12:58:26;;;;;;;5.78;3.97;;;;;;;;;;5033316;28;20186;-64
2020/12/12 13:00:52;;;;;;;5.78;3.83;;;;;;;;;;5033141;28;20186;-65
2020/12/12 13:03:17;;;;;;;4.83;3.73;;;;;;;;;;5035552;28;20719;-65
2020/12/12 13:05:44;;;;;;;6.97;4.35;;;;;;;;;;5036731;28;20245;-65
2020/12/12 13:08:09;;;;;;;8.43;6.65;;;;;;;;;;5037350;28;20175;-67
2020/12/12 13:10:34;;;;;;;6.38;5.63;;;;;;;;;;5037005;28;20185;-66
2020/12/12 13:13:00;;;;;;;9.32;7.00;;;;;;;;;;5037322;28;20182;-67
2020/12/12 13:15:26;;;;;;;7.85;6.75;;;;;;;;;;5035613;28;20198;-68
2020/12/12 13:17:52;;;;;;;5.63;4.63;;;;;;;;;;5037018;28;20178;-66
2020/12/12 13:20:27;;;;;;;6.57;4.53;;;;;;;;;;5036836;28;20171;-67
2020/12/12 13:22:53;;;;;;;8.27;6.72;;;;;;;;;;5037022;28;20250;-68
2020/12/12 13:25:18;;;;;;;6.85;5.60;;;;;;;;;;5036962;28;20202;-67
2020/12/12 13:27:43;;;;;;;5.80;4.72;;;;;;;;;;5036568;28;20220;-68
2020/12/12 13:30:23;;;;;;;8.27;3.75;;;;;;;;;;5036545;28;20175;-68
2020/12/12 13:32:48;;;;;;;5.05;4.15;;;;;;;;;;5036416;28;20190;-66
2020/12/12 13:35:14;;;;;;;10.68;5.93;;;;;;;;;;5036946;28;20241;-66
2020/12/12 13:37:40;;;;;;;5.70;4.70;;;;;;;;;;5036707;28;20178;-67
2020/12/12 13:40:06;;;;;;;8.02;6.10;;;;;;;;;;5036566;28;20254;-67
2020/12/12 13:42:34;;;;;;;10.15;9.00;;;;;;;;;;5036316;28;20186;-67
2020/12/12 13:45:00;;;;;;;6.50;5.47;;;;;;;;;;5036470;28;20542;-66
2020/12/12 13:47:25;;;;;;;7.10;5.82;;;;;;;;;;5036353;28;20178;-64
2020/12/12 13:49:51;;;;;;;4.93;4.28;;;;;;;;;;5036289;28;20171;-66
2020/12/12 13:52:16;;;;;;;9.32;8.32;;;;;;;;;;5036164;28;20830;-63
2020/12/12 13:54:42;;;;;;;7.97;5.07;;;;;;;;;;5036354;28;20182;-65
2020/12/12 13:57:07;;;;;;;7.47;3.78;;;;;;;;;;5036020;28;20182;-63
2020/12/12 13:59:32;;;;;;;7.90;6.10;;;;;;;;;;5036143;28;20627;-64
2020/12/12 14:01:57;;;;;;;5.78;4.10;;;;;;;;;;5035943;28;20646;-66
2020/12/12 14:04:23;;;;;;;6.65;4.78;;;;;;;;;;5035863;28;20234;-68
2020/12/12 14:06:50;;;;;;;7.67;5.80;;;;;;;;;;5035919;28;20525;-66
2020/12/12 14:22:59;;;;;;;5.90;5.07;;;;;;;;;;5035660;28;20170;-65
2020/12/12 14:25:26;;;;;;;8.63;5.28;;;;;;;;;;5035948;28;20155;-65
2020/12/12 14:30:39;;;;;;;12.32;4.65;;;;;;;;;;5035950;28;20197;-65
2020/12/12 14:33:04;;;;;;;17.77;4.53;;;;;;;;;;5035717;28;20253;-66
2020/12/12 14:35:29;;;;;;;7.37;4.30;;;;;;;;;;5035523;28;20677;-66
2020/12/12 14:37:55;;;;;;;5.72;3.90;;;;;;;;;;5035408;28;20175;-67
2020/12/12 14:40:20;;;;;;;8.53;4.17;;;;;;;;;;5035288;28;20178;-66
2020/12/12 14:42:45;;;;;;;7.33;4.37;;;;;;;;;;5035095;28;20624;-66
2020/12/12 14:45:10;;;;;;;8.77;4.00;;;;;;;;;;5035077;28;20233;-67
2020/12/12 14:47:36;;;;;;;5.07;3.60;;;;;;;;;;5035150;28;20645;-67
2020/12/12 14:50:02;;;;;;;6.82;3.72;;;;;;;;;;5035061;28;20179;-67
2020/12/12 14:52:32;;;;;;;5.15;3.70;;;;;;;;;;5035090;28;20175;-66
2020/12/12 14:54:57;;;;;;;5.37;3.53;;;;;;;;;;5035190;28;20607;-65
2020/12/12 14:57:23;;;;;;;7.37;3.60;;;;;;;;;;5035041;28;20174;-65
2020/12/12 14:59:48;;;;;;;5.97;3.58;;;;;;;;;;5034828;28;20179;-65
2020/12/12 15:02:14;;;;;;;4.63;3.60;;;;;;;;;;5034857;28;20179;-66
2020/12/12 15:04:39;;;;;;;5.23;3.43;;;;;;;;;;5034620;28;20631;-65